sensor_id;sensor_type;location;lat;lon;timestamp;pressure;altitude;pressure_sealevel;temperature
69785;BMP280;14177;51.520;6.764;2023-12-04T00:01:15;101253.63;;;0.89
69785;BMP280;14177;51.520;6.764;2023-12-04T00:03:43;101245.06;;;0.87
69785;BMP280;14177;51.520;6.764;2023-12-04T00:06:11;101243.38;;;0.87
69785;BMP280;14177;51.520;6.764;2023-12-04T00:08:38;101224.63;;;0.88
69785;BMP280;14177;51.520;6.764;2023-12-04T00:11:06;101233.19;;;0.90
69785;BMP280;14177;51.520;6.764;2023-12-04T00:13:33;101231.47;;;0.91
69785;BMP280;14177;51.520;6.764;2023-12-04T00:16:01;101225.53;;;0.92
69785;BMP280;14177;51.520;6.764;2023-12-04T00:18:29;101225.56;;;0.95
69785;BMP280;14177;51.520;6.764;2023-12-04T00:20:56;101223.84;;;0.94
69785;BMP280;14177;51.520;6.764;2023-12-04T00:23:23;101224.72;;;0.94
69785;BMP280;14177;51.520;6.764;2023-12-04T00:25:51;101219.66;;;0.97
69785;BMP280;14177;51.520;6.764;2023-12-04T00:28:18;101220.53;;;0.99
69785;BMP280;14177;51.520;6.764;2023-12-04T00:30:46;101206.91;;;1.00
69785;BMP280;14177;51.520;6.764;2023-12-04T00:33:13;101204.41;;;1.03
69785;BMP280;14177;51.520;6.764;2023-12-04T00:35:40;101214.69;;;1.06
69785;BMP280;14177;51.520;6.764;2023-12-04T00:38:07;101207.00;;;1.08
69785;BMP280;14177;51.520;6.764;2023-12-04T00:40:34;101201.06;;;1.10
69785;BMP280;14177;51.520;6.764;2023-12-04T00:43:01;101190.84;;;1.12
69785;BMP280;14177;51.520;6.764;2023-12-04T00:45:28;101189.13;;;1.12
69785;BMP280;14177;51.520;6.764;2023-12-04T00:47:55;101188.28;;;1.12
69785;BMP280;14177;51.520;6.764;2023-12-04T00:50:22;101187.47;;;1.14
69785;BMP280;14177;51.520;6.764;2023-12-04T00:52:49;101177.25;;;1.16
69785;BMP280;14177;51.520;6.764;2023-12-04T00:55:16;101178.13;;;1.19
69785;BMP280;14177;51.520;6.764;2023-12-04T00:57:43;101174.75;;;1.18
69785;BMP280;14177;51.520;6.764;2023-12-04T01:00:19;101167.03;;;1.16
69785;BMP280;14177;51.520;6.764;2023-12-04T01:02:45;101170.47;;;1.17
69785;BMP280;14177;51.520;6.764;2023-12-04T01:05:13;101167.06;;;1.18
69785;BMP280;14177;51.520;6.764;2023-12-04T01:07:39;101163.69;;;1.22
69785;BMP280;14177;51.520;6.764;2023-12-04T01:10:07;101161.97;;;1.23
69785;BMP280;14177;51.520;6.764;2023-12-04T01:12:34;101168.88;;;1.27
69785;BMP280;14177;51.520;6.764;2023-12-04T01:15:02;101164.66;;;1.30
69785;BMP280;14177;51.520;6.764;2023-12-04T01:17:29;101162.97;;;1.32
69785;BMP280;14177;51.520;6.764;2023-12-04T01:19:56;101151.88;;;1.30
69785;BMP280;14177;51.520;6.764;2023-12-04T01:22:24;101155.25;;;1.29
69785;BMP280;14177;51.520;6.764;2023-12-04T01:24:51;101147.63;;;1.32
69785;BMP280;14177;51.520;6.764;2023-12-04T01:27:18;101147.63;;;1.32
69785;BMP280;14177;51.520;6.764;2023-12-04T01:29:45;101145.94;;;1.34
69785;BMP280;14177;51.520;6.764;2023-12-04T01:32:12;101144.22;;;1.33
69785;BMP280;14177;51.520;6.764;2023-12-04T01:34:38;101139.09;;;1.33
69785;BMP280;14177;51.520;6.764;2023-12-04T01:37:05;101136.50;;;1.30
69785;BMP280;14177;51.520;6.764;2023-12-04T01:39:32;101140.78;;;1.31
69785;BMP280;14177;51.520;6.764;2023-12-04T01:41:59;101133.94;;;1.30
69785;BMP280;14177;51.520;6.764;2023-12-04T01:44:26;101133.06;;;1.28
69785;BMP280;14177;51.520;6.764;2023-12-04T01:46:54;101133.91;;;1.27
69785;BMP280;14177;51.520;6.764;2023-12-04T01:49:21;101133.88;;;1.24
69785;BMP280;14177;51.520;6.764;2023-12-04T01:51:48;101131.31;;;1.26
69785;BMP280;14177;51.520;6.764;2023-12-04T01:54:16;101132.19;;;1.26
69785;BMP280;14177;51.520;6.764;2023-12-04T01:56:44;101124.47;;;1.23
69785;BMP280;14177;51.520;6.764;2023-12-04T01:59:12;101129.59;;;1.23
69785;BMP280;14177;51.520;6.764;2023-12-04T02:01:39;101125.31;;;1.22
69785;BMP280;14177;51.520;6.764;2023-12-04T02:04:07;101123.59;;;1.21
69785;BMP280;14177;51.520;6.764;2023-12-04T02:06:35;101121.88;;;1.20
69785;BMP280;14177;51.520;6.764;2023-12-04T02:09:02;101118.47;;;1.23
69785;BMP280;14177;51.520;6.764;2023-12-04T02:11:29;101120.19;;;1.22
69785;BMP280;14177;51.520;6.764;2023-12-04T02:13:56;101123.59;;;1.23
69785;BMP280;14177;51.520;6.764;2023-12-04T02:16:27;101123.63;;;1.24
69785;BMP280;14177;51.520;6.764;2023-12-04T02:18:56;101127.94;;;1.28
69785;BMP280;14177;51.520;6.764;2023-12-04T02:21:23;101126.19;;;1.26
69785;BMP280;14177;51.520;6.764;2023-12-04T02:23:52;101116.84;;;1.28
69785;BMP280;14177;51.520;6.764;2023-12-04T02:26:28;101115.09;;;1.25
69785;BMP280;14177;51.520;6.764;2023-12-04T02:29:07;101122.00;;;1.29
69785;BMP280;14177;51.520;6.764;2023-12-04T02:31:40;101103.22;;;1.30
69785;BMP280;14177;51.520;6.764;2023-12-04T02:34:09;101102.38;;;1.31
69785;BMP280;14177;51.520;6.764;2023-12-04T02:36:38;101095.56;;;1.32
69785;BMP280;14177;51.520;6.764;2023-12-04T02:39:07;101093.03;;;1.33
69785;BMP280;14177;51.520;6.764;2023-12-04T02:41:34;101089.63;;;1.34
69785;BMP280;14177;51.520;6.764;2023-12-04T02:44:01;101085.34;;;1.35
69785;BMP280;14177;51.520;6.764;2023-12-04T02:46:28;101087.91;;;1.35
69785;BMP280;14177;51.520;6.764;2023-12-04T02:48:55;101080.22;;;1.35
69785;BMP280;14177;51.520;6.764;2023-12-04T02:51:22;101086.22;;;1.37
69785;BMP280;14177;51.520;6.764;2023-12-04T02:53:52;101069.97;;;1.33
69785;BMP280;14177;51.520;6.764;2023-12-04T02:56:19;101074.25;;;1.34
69785;BMP280;14177;51.520;6.764;2023-12-04T02:58:46;101074.28;;;1.37
69785;BMP280;14177;51.520;6.764;2023-12-04T03:01:13;101064.06;;;1.37
69785;BMP280;14177;51.520;6.764;2023-12-04T03:03:40;101059.78;;;1.38
69785;BMP280;14177;51.520;6.764;2023-12-04T03:06:08;101058.97;;;1.40
69785;BMP280;14177;51.520;6.764;2023-12-04T03:08:35;101048.72;;;1.40
69785;BMP280;14177;51.520;6.764;2023-12-04T03:11:02;101053.84;;;1.40
69785;BMP280;14177;51.520;6.764;2023-12-04T03:13:30;101048.72;;;1.40
69785;BMP280;14177;51.520;6.764;2023-12-04T03:15:58;101053.00;;;1.41
69785;BMP280;14177;51.520;6.764;2023-12-04T03:18:26;101043.59;;;1.42
69785;BMP280;14177;51.520;6.764;2023-12-04T03:20:53;101049.56;;;1.39
69785;BMP280;14177;51.520;6.764;2023-12-04T03:23:20;101039.34;;;1.44
69785;BMP280;14177;51.520;6.764;2023-12-04T03:25:47;101023.13;;;1.42
69785;BMP280;14177;51.520;6.764;2023-12-04T03:28:14;101020.56;;;1.42
69785;BMP280;14177;51.520;6.764;2023-12-04T03:30:42;101015.44;;;1.40
69785;BMP280;14177;51.520;6.764;2023-12-04T03:33:12;101018.00;;;1.40
69785;BMP280;14177;51.520;6.764;2023-12-04T03:35:39;101014.63;;;1.44
69785;BMP280;14177;51.520;6.764;2023-12-04T03:38:06;101007.78;;;1.43
69785;BMP280;14177;51.520;6.764;2023-12-04T03:40:33;101018.03;;;1.46
69785;BMP280;14177;51.520;6.764;2023-12-04T03:43:01;101015.50;;;1.48
69785;BMP280;14177;51.520;6.764;2023-12-04T03:45:28;101012.06;;;1.47
69785;BMP280;14177;51.520;6.764;2023-12-04T03:47:56;101004.38;;;1.47
69785;BMP280;14177;51.520;6.764;2023-12-04T03:50:23;101006.94;;;1.46
69785;BMP280;14177;51.520;6.764;2023-12-04T03:52:50;101001.81;;;1.44
69785;BMP280;14177;51.520;6.764;2023-12-04T03:55:17;100992.44;;;1.43
69785;BMP280;14177;51.520;6.764;2023-12-04T03:57:46;100999.28;;;1.44
69785;BMP280;14177;51.520;6.764;2023-12-04T04:00:13;100991.59;;;1.47
69785;BMP280;14177;51.520;6.764;2023-12-04T04:02:43;100994.16;;;1.47
69785;BMP280;14177;51.520;6.764;2023-12-04T04:05:10;100979.66;;;1.49
69785;BMP280;14177;51.520;6.764;2023-12-04T04:07:37;100977.13;;;1.51
69785;BMP280;14177;51.520;6.764;2023-12-04T04:10:06;100974.59;;;1.54
69785;BMP280;14177;51.520;6.764;2023-12-04T04:12:33;100967.75;;;1.53
69785;BMP280;14177;51.520;6.764;2023-12-04T04:15:01;100975.44;;;1.54
69785;BMP280;14177;51.520;6.764;2023-12-04T04:17:28;100975.47;;;1.57
69785;BMP280;14177;51.520;6.764;2023-12-04T04:19:56;100968.66;;;1.59
69785;BMP280;14177;51.520;6.764;2023-12-04T04:22:23;100969.53;;;1.64
69785;BMP280;14177;51.520;6.764;2023-12-04T04:24:50;100971.28;;;1.68
69785;BMP280;14177;51.520;6.764;2023-12-04T04:27:17;100971.28;;;1.68
69785;BMP280;14177;51.520;6.764;2023-12-04T04:29:44;100968.72;;;1.68
69785;BMP280;14177;51.520;6.764;2023-12-04T04:32:11;100965.28;;;1.66
69785;BMP280;14177;51.520;6.764;2023-12-04T04:34:40;100954.19;;;1.67
69785;BMP280;14177;51.520;6.764;2023-12-04T04:37:08;100951.63;;;1.67
69785;BMP280;14177;51.520;6.764;2023-12-04T04:39:34;100955.97;;;1.73
69785;BMP280;14177;51.520;6.764;2023-12-04T04:42:02;100949.13;;;1.73
69785;BMP280;14177;51.520;6.764;2023-12-04T04:44:28;100946.59;;;1.75
69785;BMP280;14177;51.520;6.764;2023-12-04T04:46:55;100936.31;;;1.73
69785;BMP280;14177;51.520;6.764;2023-12-04T04:49:22;100939.75;;;1.75
69785;BMP280;14177;51.520;6.764;2023-12-04T04:51:49;100947.47;;;1.77
69785;BMP280;14177;51.520;6.764;2023-12-04T04:54:16;100939.78;;;1.78
69785;BMP280;14177;51.520;6.764;2023-12-04T04:56:43;100938.06;;;1.77
69785;BMP280;14177;51.520;6.764;2023-12-04T04:59:10;100931.22;;;1.76
69785;BMP280;14177;51.520;6.764;2023-12-04T05:01:37;100933.78;;;1.76
69785;BMP280;14177;51.520;6.764;2023-12-04T05:04:04;100929.50;;;1.75
69785;BMP280;14177;51.520;6.764;2023-12-04T05:06:31;100923.53;;;1.75
69785;BMP280;14177;51.520;6.764;2023-12-04T05:08:58;100915.00;;;1.77
69785;BMP280;14177;51.520;6.764;2023-12-04T05:11:25;100921.88;;;1.80
69785;BMP280;14177;51.520;6.764;2023-12-04T05:13:53;100916.75;;;1.81
69785;BMP280;14177;51.520;6.764;2023-12-04T05:16:20;100920.16;;;1.80
69785;BMP280;14177;51.520;6.764;2023-12-04T05:18:53;100915.91;;;1.81
69785;BMP280;14177;51.520;6.764;2023-12-04T05:21:21;100914.16;;;1.83
69785;BMP280;14177;51.520;6.764;2023-12-04T05:23:47;100910.75;;;1.79
69785;BMP280;14177;51.520;6.764;2023-12-04T05:26:15;100903.06;;;1.79
69785;BMP280;14177;51.520;6.764;2023-12-04T05:28:42;100898.78;;;1.83
69785;BMP280;14177;51.520;6.764;2023-12-04T05:31:09;100900.53;;;1.82
69785;BMP280;14177;51.520;6.764;2023-12-04T05:33:36;100899.66;;;1.79
69785;BMP280;14177;51.520;6.764;2023-12-04T05:36:06;100894.56;;;1.82
69785;BMP280;14177;51.520;6.764;2023-12-04T05:38:33;100898.81;;;1.84
69785;BMP280;14177;51.520;6.764;2023-12-04T05:41:00;100900.53;;;1.85
69785;BMP280;14177;51.520;6.764;2023-12-04T05:43:27;100912.50;;;1.86
69785;BMP280;14177;51.520;6.764;2023-12-04T05:45:54;100903.09;;;1.85
69785;BMP280;14177;51.520;6.764;2023-12-04T05:48:21;100906.50;;;1.81
69785;BMP280;14177;51.520;6.764;2023-12-04T05:50:48;100903.94;;;1.81
69785;BMP280;14177;51.520;6.764;2023-12-04T05:53:16;100896.22;;;1.78
69785;BMP280;14177;51.520;6.764;2023-12-04T05:55:43;100897.94;;;1.78
69785;BMP280;14177;51.520;6.764;2023-12-04T05:58:10;100903.06;;;1.78
69785;BMP280;14177;51.520;6.764;2023-12-04T06:00:37;100905.59;;;1.76
69785;BMP280;14177;51.520;6.764;2023-12-04T06:03:04;100903.91;;;1.77
69785;BMP280;14177;51.520;6.764;2023-12-04T06:05:31;100896.22;;;1.78
69785;BMP280;14177;51.520;6.764;2023-12-04T06:07:58;100887.69;;;1.78
69785;BMP280;14177;51.520;6.764;2023-12-04T06:10:25;100888.53;;;1.78
69785;BMP280;14177;51.520;6.764;2023-12-04T06:12:52;100890.25;;;1.79
69785;BMP280;14177;51.520;6.764;2023-12-04T06:15:19;100880.00;;;1.79
69785;BMP280;14177;51.520;6.764;2023-12-04T06:17:46;100869.75;;;1.79
69785;BMP280;14177;51.520;6.764;2023-12-04T06:20:13;100862.94;;;1.80
69785;BMP280;14177;51.520;6.764;2023-12-04T06:22:40;100859.53;;;1.82
69785;BMP280;14177;51.520;6.764;2023-12-04T06:25:08;100854.41;;;1.82
69785;BMP280;14177;51.520;6.764;2023-12-04T06:27:36;100847.56;;;1.81
69785;BMP280;14177;51.520;6.764;2023-12-04T06:30:04;100838.19;;;1.85
69785;BMP280;14177;51.520;6.764;2023-12-04T06:32:32;100839.91;;;1.84
69785;BMP280;14177;51.520;6.764;2023-12-04T06:35:00;100845.88;;;1.85
69785;BMP280;14177;51.520;6.764;2023-12-04T06:37:27;100828.81;;;1.85
69785;BMP280;14177;51.520;6.764;2023-12-04T06:39:59;100833.09;;;1.86
69785;BMP280;14177;51.520;6.764;2023-12-04T06:42:27;100828.81;;;1.85
69785;BMP280;14177;51.520;6.764;2023-12-04T06:44:54;100831.38;;;1.85
69785;BMP280;14177;51.520;6.764;2023-12-04T06:47:23;100823.66;;;1.82
69785;BMP280;14177;51.520;6.764;2023-12-04T06:49:50;100820.25;;;1.80
69785;BMP280;14177;51.520;6.764;2023-12-04T06:52:17;100821.09;;;1.79
69785;BMP280;14177;51.520;6.764;2023-12-04T06:54:44;100820.25;;;1.80
69785;BMP280;14177;51.520;6.764;2023-12-04T06:57:11;100817.72;;;1.82
69785;BMP280;14177;51.520;6.764;2023-12-04T06:59:43;100817.69;;;1.83
69785;BMP280;14177;51.520;6.764;2023-12-04T07:02:10;100811.72;;;1.84
69785;BMP280;14177;51.520;6.764;2023-12-04T07:04:38;100810.84;;;1.84
69785;BMP280;14177;51.520;6.764;2023-12-04T07:07:05;100805.72;;;1.84
69785;BMP280;14177;51.520;6.764;2023-12-04T07:09:33;100804.91;;;1.83
69785;BMP280;14177;51.520;6.764;2023-12-04T07:12:01;100796.34;;;1.83
69785;BMP280;14177;51.520;6.764;2023-12-04T07:14:29;100792.09;;;1.82
69785;BMP280;14177;51.520;6.764;2023-12-04T07:16:56;100794.66;;;1.83
69785;BMP280;14177;51.520;6.764;2023-12-04T07:19:23;100794.66;;;1.83
69785;BMP280;14177;51.520;6.764;2023-12-04T07:21:51;100786.09;;;1.81
69785;BMP280;14177;51.520;6.764;2023-12-04T07:24:18;100786.94;;;1.80
69785;BMP280;14177;51.520;6.764;2023-12-04T07:26:45;100782.66;;;1.79
69785;BMP280;14177;51.520;6.764;2023-12-04T07:29:12;100784.38;;;1.77
69785;BMP280;14177;51.520;6.764;2023-12-04T07:31:41;100787.78;;;1.79
69785;BMP280;14177;51.520;6.764;2023-12-04T07:34:08;100782.66;;;1.79
69785;BMP280;14177;51.520;6.764;2023-12-04T07:36:35;100778.41;;;1.81
69785;BMP280;14177;51.520;6.764;2023-12-04T07:39:02;100779.28;;;1.83
69785;BMP280;14177;51.520;6.764;2023-12-04T07:41:33;100777.56;;;1.85
69785;BMP280;14177;51.520;6.764;2023-12-04T07:44:00;100770.75;;;1.87
69785;BMP280;14177;51.520;6.764;2023-12-04T07:46:27;100765.66;;;1.90
69785;BMP280;14177;51.520;6.764;2023-12-04T07:48:54;100760.53;;;1.93
69785;BMP280;14177;51.520;6.764;2023-12-04T07:51:22;100754.53;;;1.91
69785;BMP280;14177;51.520;6.764;2023-12-04T07:53:50;100759.69;;;1.94
69785;BMP280;14177;51.520;6.764;2023-12-04T07:56:17;100762.25;;;2.00
69785;BMP280;14177;51.520;6.764;2023-12-04T07:58:44;100763.09;;;2.01
69785;BMP280;14177;51.520;6.764;2023-12-04T08:01:11;100757.13;;;2.02
69785;BMP280;14177;51.520;6.764;2023-12-04T08:03:38;100748.63;;;2.04
69785;BMP280;14177;51.520;6.764;2023-12-04T08:06:05;100752.88;;;2.02
69785;BMP280;14177;51.520;6.764;2023-12-04T08:08:32;100765.69;;;2.05
69785;BMP280;14177;51.520;6.764;2023-12-04T08:10:59;100762.28;;;2.06
69785;BMP280;14177;51.520;6.764;2023-12-04T08:13:26;100765.72;;;2.08
69785;BMP280;14177;51.520;6.764;2023-12-04T08:15:53;100765.72;;;2.08
69785;BMP280;14177;51.520;6.764;2023-12-04T08:18:20;100758.88;;;2.10
69785;BMP280;14177;51.520;6.764;2023-12-04T08:20:47;100762.28;;;2.09
69785;BMP280;14177;51.520;6.764;2023-12-04T08:23:14;100758.88;;;2.10
69785;BMP280;14177;51.520;6.764;2023-12-04T08:25:42;100753.78;;;2.13
69785;BMP280;14177;51.520;6.764;2023-12-04T08:28:09;100752.91;;;2.17
69785;BMP280;14177;51.520;6.764;2023-12-04T08:30:36;100747.78;;;2.20
69785;BMP280;14177;51.520;6.764;2023-12-04T08:33:03;100745.25;;;2.28
69785;BMP280;14177;51.520;6.764;2023-12-04T08:35:31;100753.78;;;2.31
69785;BMP280;14177;51.520;6.764;2023-12-04T08:37:57;100752.06;;;2.36
69785;BMP280;14177;51.520;6.764;2023-12-04T08:40:25;100748.69;;;2.38
69785;BMP280;14177;51.520;6.764;2023-12-04T08:42:52;100733.28;;;2.43
69785;BMP280;14177;51.520;6.764;2023-12-04T08:45:19;100724.75;;;2.47
69785;BMP280;14177;51.520;6.764;2023-12-04T08:47:46;100717.91;;;2.49
69785;BMP280;14177;51.520;6.764;2023-12-04T08:50:13;100716.22;;;2.54
69785;BMP280;14177;51.520;6.764;2023-12-04T08:52:40;100711.94;;;2.56
69785;BMP280;14177;51.520;6.764;2023-12-04T08:55:09;100721.31;;;2.58
69785;BMP280;14177;51.520;6.764;2023-12-04T08:57:36;100714.50;;;2.62
69785;BMP280;14177;51.520;6.764;2023-12-04T09:00:04;100711.91;;;2.63
69785;BMP280;14177;51.520;6.764;2023-12-04T09:02:31;100703.38;;;2.66
69785;BMP280;14177;51.520;6.764;2023-12-04T09:04:59;100709.38;;;2.71
69785;BMP280;14177;51.520;6.764;2023-12-04T09:07:26;100717.06;;;2.77
69785;BMP280;14177;51.520;6.764;2023-12-04T09:10:13;100704.25;;;2.80
69785;BMP280;14177;51.520;6.764;2023-12-04T09:13:00;100704.25;;;2.83
69785;BMP280;14177;51.520;6.764;2023-12-04T09:15:28;100696.53;;;2.87
69785;BMP280;14177;51.520;6.764;2023-12-04T09:17:55;100694.81;;;2.92
69785;BMP280;14177;51.520;6.764;2023-12-04T09:20:23;100684.53;;;2.92
69785;BMP280;14177;51.520;6.764;2023-12-04T09:22:50;100683.69;;;2.96
69785;BMP280;14177;51.520;6.764;2023-12-04T09:25:23;100675.09;;;3.05
69785;BMP280;14177;51.520;6.764;2023-12-04T09:27:50;100662.25;;;3.11
69785;BMP280;14177;51.520;6.764;2023-12-04T09:30:17;100675.06;;;3.14
69785;BMP280;14177;51.520;6.764;2023-12-04T09:32:44;100663.94;;;3.15
69785;BMP280;14177;51.520;6.764;2023-12-04T09:35:11;100663.94;;;3.18
69785;BMP280;14177;51.520;6.764;2023-12-04T09:37:38;100667.38;;;3.17
69785;BMP280;14177;51.520;6.764;2023-12-04T09:40:06;100657.97;;;3.16
69785;BMP280;14177;51.520;6.764;2023-12-04T09:42:35;100651.97;;;3.18
69785;BMP280;14177;51.520;6.764;2023-12-04T09:45:04;100639.97;;;3.22
69785;BMP280;14177;51.520;6.764;2023-12-04T09:47:33;100642.53;;;3.22
69785;BMP280;14177;51.520;6.764;2023-12-04T09:50:01;100645.09;;;3.22
69785;BMP280;14177;51.520;6.764;2023-12-04T09:52:31;100639.09;;;3.23
69785;BMP280;14177;51.520;6.764;2023-12-04T09:54:58;100639.97;;;3.26
69785;BMP280;14177;51.520;6.764;2023-12-04T09:57:25;100642.50;;;3.28
69785;BMP280;14177;51.520;6.764;2023-12-04T09:59:53;100634.81;;;3.31
69785;BMP280;14177;51.520;6.764;2023-12-04T10:02:20;100638.19;;;3.34
69785;BMP280;14177;51.520;6.764;2023-12-04T10:04:51;100627.06;;;3.37
69785;BMP280;14177;51.520;6.764;2023-12-04T10:07:19;100623.63;;;3.41
69785;BMP280;14177;51.520;6.764;2023-12-04T10:09:46;100615.91;;;3.42
69785;BMP280;14177;51.520;6.764;2023-12-04T10:12:13;100615.06;;;3.45
69785;BMP280;14177;51.520;6.764;2023-12-04T10:14:40;100614.19;;;3.46
69785;BMP280;14177;51.520;6.764;2023-12-04T10:17:16;100614.19;;;3.47
69785;BMP280;14177;51.520;6.764;2023-12-04T10:19:44;100595.34;;;3.50
69785;BMP280;14177;51.520;6.764;2023-12-04T10:22:11;100608.19;;;3.50
69785;BMP280;14177;51.520;6.764;2023-12-04T10:24:40;100601.31;;;3.50
69785;BMP280;14177;51.520;6.764;2023-12-04T10:27:09;100585.06;;;3.51
69785;BMP280;14177;51.520;6.764;2023-12-04T10:29:47;100580.78;;;3.52
69785;BMP280;14177;51.520;6.764;2023-12-04T10:32:21;100580.78;;;3.52
69785;BMP280;14177;51.520;6.764;2023-12-04T10:34:50;100577.34;;;3.51
69785;BMP280;14177;51.520;6.764;2023-12-04T10:37:17;100578.19;;;3.50
69785;BMP280;14177;51.520;6.764;2023-12-04T10:39:49;100563.66;;;3.51
69785;BMP280;14177;51.520;6.764;2023-12-04T10:42:29;100565.38;;;3.52
69785;BMP280;14177;51.520;6.764;2023-12-04T10:44:59;100566.22;;;3.52
69785;BMP280;14177;51.520;6.764;2023-12-04T10:47:29;100564.47;;;3.54
69785;BMP280;14177;51.520;6.764;2023-12-04T10:50:00;100558.50;;;3.57
69785;BMP280;14177;51.520;6.764;2023-12-04T10:52:28;100550.78;;;3.57
69785;BMP280;14177;51.520;6.764;2023-12-04T10:54:57;100558.47;;;3.59
69785;BMP280;14177;51.520;6.764;2023-12-04T10:57:36;100565.31;;;3.63
69785;BMP280;14177;51.520;6.764;2023-12-04T11:00:05;100549.03;;;3.61
69785;BMP280;14177;51.520;6.764;2023-12-04T11:02:38;100558.41;;;3.65
69785;BMP280;14177;51.520;6.764;2023-12-04T11:05:16;100560.13;;;3.68
69785;BMP280;14177;51.520;6.764;2023-12-04T11:07:53;100561.81;;;3.67
69785;BMP280;14177;51.520;6.764;2023-12-04T11:11:03;100548.09;;;3.68
69785;BMP280;14177;51.520;6.764;2023-12-04T11:13:32;100534.44;;;3.68
69785;BMP280;14177;51.520;6.764;2023-12-04T11:16:38;100539.53;;;3.69
69785;BMP280;14177;51.520;6.764;2023-12-04T11:19:17;100542.97;;;3.68
69785;BMP280;14177;51.520;6.764;2023-12-04T11:21:50;100534.44;;;3.68
69785;BMP280;14177;51.520;6.764;2023-12-04T11:24:18;100533.56;;;3.69
69785;BMP280;14177;51.520;6.764;2023-12-04T11:26:46;100529.25;;;3.69
69785;BMP280;14177;51.520;6.764;2023-12-04T11:29:15;100526.72;;;3.68
69785;BMP280;14177;51.520;6.764;2023-12-04T11:31:42;100524.13;;;3.69
69785;BMP280;14177;51.520;6.764;2023-12-04T11:34:09;100511.28;;;3.69
69785;BMP280;14177;51.520;6.764;2023-12-04T11:36:37;100507.88;;;3.69
69785;BMP280;14177;51.520;6.764;2023-12-04T11:39:09;100499.31;;;3.68
69785;BMP280;14177;51.520;6.764;2023-12-04T11:41:41;100507.00;;;3.68
69785;BMP280;14177;51.520;6.764;2023-12-04T11:44:13;100513.84;;;3.69
69785;BMP280;14177;51.520;6.764;2023-12-04T11:47:19;100495.91;;;3.68
69785;BMP280;14177;51.520;6.764;2023-12-04T11:49:46;100501.06;;;3.65
69785;BMP280;14177;51.520;6.764;2023-12-04T11:52:14;100512.19;;;3.64
69785;BMP280;14177;51.520;6.764;2023-12-04T11:55:03;100498.50;;;3.63
69785;BMP280;14177;51.520;6.764;2023-12-04T11:57:37;100500.25;;;3.61
69785;BMP280;14177;51.520;6.764;2023-12-04T12:00:19;100499.38;;;3.58
69785;BMP280;14177;51.520;6.764;2023-12-04T12:02:49;100487.44;;;3.56
69785;BMP280;14177;51.520;6.764;2023-12-04T12:05:49;100485.78;;;3.49
69785;BMP280;14177;51.520;6.764;2023-12-04T12:08:22;100485.78;;;3.46
69785;BMP280;14177;51.520;6.764;2023-12-04T12:10:49;100478.09;;;3.43
69785;BMP280;14177;51.520;6.764;2023-12-04T12:13:17;100472.97;;;3.41
69785;BMP280;14177;51.520;6.764;2023-12-04T12:15:47;100474.72;;;3.36
69785;BMP280;14177;51.520;6.764;2023-12-04T12:18:17;100465.31;;;3.32
69785;BMP280;14177;51.520;6.764;2023-12-04T12:20:45;100451.66;;;3.29
69785;BMP280;14177;51.520;6.764;2023-12-04T12:23:12;100452.53;;;3.28
69785;BMP280;14177;51.520;6.764;2023-12-04T12:25:39;100445.69;;;3.27
69785;BMP280;14177;51.520;6.764;2023-12-04T12:28:06;100450.84;;;3.24
69785;BMP280;14177;51.520;6.764;2023-12-04T12:30:33;100439.75;;;3.20
69785;BMP280;14177;51.520;6.764;2023-12-04T12:33:00;100439.78;;;3.17
69785;BMP280;14177;51.520;6.764;2023-12-04T12:35:27;100435.50;;;3.15
69785;BMP280;14177;51.520;6.764;2023-12-04T12:37:55;100425.22;;;3.15
69785;BMP280;14177;51.520;6.764;2023-12-04T12:40:27;100418.44;;;3.09
69785;BMP280;14177;51.520;6.764;2023-12-04T12:43:07;100423.59;;;3.05
69785;BMP280;14177;51.520;6.764;2023-12-04T12:45:46;100409.06;;;3.01
69785;BMP280;14177;51.520;6.764;2023-12-04T12:48:16;100409.09;;;2.98
69785;BMP280;14177;51.520;6.764;2023-12-04T12:50:46;100399.69;;;2.97
69785;BMP280;14177;51.520;6.764;2023-12-04T12:53:14;100394.56;;;2.97
69785;BMP280;14177;51.520;6.764;2023-12-04T12:55:41;100388.56;;;2.98
69785;BMP280;14177;51.520;6.764;2023-12-04T12:58:12;100401.38;;;3.01
69785;BMP280;14177;51.520;6.764;2023-12-04T13:00:41;100387.69;;;3.02
69785;BMP280;14177;51.520;6.764;2023-12-04T13:03:17;100380.81;;;3.04
69785;BMP280;14177;51.520;6.764;2023-12-04T13:05:45;100380.81;;;3.08
69785;BMP280;14177;51.520;6.764;2023-12-04T13:08:14;100382.50;;;3.11
69785;BMP280;14177;51.520;6.764;2023-12-04T13:10:43;100373.94;;;3.12
69785;BMP280;14177;51.520;6.764;2023-12-04T13:13:12;100371.34;;;3.16
69785;BMP280;14177;51.520;6.764;2023-12-04T13:15:41;100367.88;;;3.19
69785;BMP280;14177;51.520;6.764;2023-12-04T13:18:09;100359.31;;;3.20
69785;BMP280;14177;51.520;6.764;2023-12-04T13:20:36;100343.06;;;3.21
69785;BMP280;14177;51.520;6.764;2023-12-04T13:23:03;100336.19;;;3.23
69785;BMP280;14177;51.520;6.764;2023-12-04T13:25:30;100337.06;;;3.23
69785;BMP280;14177;51.520;6.764;2023-12-04T13:27:58;100339.59;;;3.25
69785;BMP280;14177;51.520;6.764;2023-12-04T13:30:26;100331.00;;;3.29
69785;BMP280;14177;51.520;6.764;2023-12-04T13:32:53;100331.84;;;3.29
69785;BMP280;14177;51.520;6.764;2023-12-04T13:35:20;100332.75;;;3.27
69785;BMP280;14177;51.520;6.764;2023-12-04T13:37:47;100322.47;;;3.27
69785;BMP280;14177;51.520;6.764;2023-12-04T13:40:21;100325.91;;;3.26
69785;BMP280;14177;51.520;6.764;2023-12-04T13:42:48;100322.50;;;3.24
69785;BMP280;14177;51.520;6.764;2023-12-04T13:45:34;100316.50;;;3.26
69785;BMP280;14177;51.520;6.764;2023-12-04T13:48:02;100319.94;;;3.24
69785;BMP280;14177;51.520;6.764;2023-12-04T13:50:29;100308.81;;;3.23
69785;BMP280;14177;51.520;6.764;2023-12-04T13:52:56;100307.09;;;3.24
69785;BMP280;14177;51.520;6.764;2023-12-04T13:55:24;100304.53;;;3.24
69785;BMP280;14177;51.520;6.764;2023-12-04T13:58:12;100297.69;;;3.24
69785;BMP280;14177;51.520;6.764;2023-12-04T14:00:59;100296.81;;;3.24
69785;BMP280;14177;51.520;6.764;2023-12-04T14:03:29;100298.56;;;3.23
69785;BMP280;14177;51.520;6.764;2023-12-04T14:05:57;100300.25;;;3.23
69785;BMP280;14177;51.520;6.764;2023-12-04T14:08:28;100297.72;;;3.21
69785;BMP280;14177;51.520;6.764;2023-12-04T14:10:55;100287.44;;;3.23
69785;BMP280;14177;51.520;6.764;2023-12-04T14:13:22;100290.00;;;3.23
69785;BMP280;14177;51.520;6.764;2023-12-04T14:15:49;100284.03;;;3.22
69785;BMP280;14177;51.520;6.764;2023-12-04T14:18:16;100282.31;;;3.21